createdAt,value
2023-07-29T00:02:22.193Z,27.51
2023-07-29T00:04:50.053Z,27.36
2023-07-29T00:07:18.102Z,27.09
2023-07-29T00:09:45.808Z,27.25
2023-07-29T00:12:13.478Z,27.17
2023-07-29T00:14:41.753Z,27.06
2023-07-29T00:17:10.062Z,27.13
2023-07-29T00:19:37.616Z,27.19
2023-07-29T00:22:06.775Z,27.16
2023-07-29T00:24:34.879Z,27.30
2023-07-29T00:27:03.006Z,27.42
2023-07-29T00:29:31.194Z,27.45
2023-07-29T00:32:05.448Z,27.47
2023-07-29T00:34:33.901Z,27.32
2023-07-29T00:37:01.925Z,27.44
2023-07-29T00:39:35.896Z,27.46
2023-07-29T00:42:04.284Z,27.42
2023-07-29T00:44:32.777Z,27.47
2023-07-29T00:47:01.022Z,27.49
2023-07-29T00:49:29.428Z,27.57
2023-07-29T00:51:57.727Z,27.57
2023-07-29T00:54:25.424Z,27.58
2023-07-29T00:56:53.293Z,27.58
2023-07-29T00:59:21.531Z,27.57
2023-07-29T01:01:49.836Z,27.58
2023-07-29T01:04:17.526Z,27.50
2023-07-29T01:07:39.428Z,27.50
2023-07-29T01:10:11.965Z,27.41
2023-07-29T01:13:00.826Z,27.23
2023-07-29T01:15:53.530Z,27.06
2023-07-29T01:18:24.606Z,26.95
2023-07-29T01:20:54.288Z,26.70
2023-07-29T01:23:50.294Z,26.53
2023-07-29T01:26:30.366Z,26.44
2023-07-29T01:29:00.335Z,26.50
2023-07-29T01:31:37.448Z,26.59
2023-07-29T01:34:15.490Z,26.58
2023-07-29T01:36:43.764Z,26.55
2023-07-29T01:39:12.535Z,26.53
2023-07-29T01:41:41.319Z,26.58
2023-07-29T01:44:09.210Z,26.61
2023-07-29T01:46:37.102Z,26.54
2023-07-29T01:49:05.441Z,26.43
2023-07-29T01:51:33.503Z,26.38
2023-07-29T01:54:01.279Z,26.28
2023-07-29T01:56:29.474Z,26.24
2023-07-29T01:58:57.765Z,26.19
2023-07-29T02:01:26.209Z,26.14
2023-07-29T02:03:57.066Z,26.13
2023-07-29T02:06:25.319Z,26.11
2023-07-29T02:08:54.466Z,26.10
2023-07-29T02:11:28.427Z,26.07
2023-07-29T02:13:56.462Z,26.14
2023-07-29T02:16:24.073Z,26.17
2023-07-29T02:18:54.244Z,26.14
2023-07-29T02:21:24.229Z,25.93
2023-07-29T02:23:52.573Z,25.80
2023-07-29T02:26:20.792Z,25.72
2023-07-29T02:28:48.828Z,25.65
2023-07-29T02:31:17.107Z,25.66
2023-07-29T02:33:45.259Z,25.76
2023-07-29T02:36:14.513Z,25.79
2023-07-29T02:38:42.217Z,25.69
2023-07-29T02:41:39.034Z,25.53
2023-07-29T02:44:07.818Z,25.39
2023-07-29T02:46:36.527Z,25.42
2023-07-29T02:49:04.976Z,25.51
2023-07-29T02:51:33.026Z,25.54
2023-07-29T02:54:01.376Z,25.62
2023-07-29T02:56:32.977Z,25.61
2023-07-29T02:59:01.694Z,25.64
2023-07-29T03:01:29.857Z,25.61
2023-07-29T03:03:57.967Z,25.68
2023-07-29T03:06:26.314Z,25.73
2023-07-29T03:08:54.068Z,25.77
2023-07-29T03:11:22.358Z,25.74
2023-07-29T03:13:51.003Z,25.82
2023-07-29T03:16:18.817Z,25.81
2023-07-29T03:18:46.601Z,25.82
2023-07-29T03:21:13.749Z,25.75
2023-07-29T03:23:43.565Z,25.57
2023-07-29T03:26:11.627Z,25.55
2023-07-29T03:28:40.469Z,25.52
2023-07-29T03:31:07.906Z,25.51
2023-07-29T03:33:35.668Z,25.52
2023-07-29T03:36:03.737Z,25.48
2023-07-29T03:38:32.040Z,25.44
2023-07-29T03:40:59.958Z,25.41
2023-07-29T03:43:28.041Z,25.41
2023-07-29T03:45:56.742Z,25.41
2023-07-29T03:48:24.372Z,25.47
2023-07-29T03:50:52.547Z,25.48
2023-07-29T03:53:20.837Z,25.55
2023-07-29T03:55:48.559Z,25.55
2023-07-29T03:58:16.651Z,25.61
2023-07-29T04:00:44.640Z,25.63
2023-07-29T04:03:12.447Z,25.74
2023-07-29T04:05:40.534Z,25.72
2023-07-29T04:08:08.748Z,25.74
2023-07-29T04:10:36.456Z,25.73
2023-07-29T04:13:04.306Z,25.77
2023-07-29T04:15:32.611Z,25.79
2023-07-29T04:18:01.022Z,25.80
2023-07-29T04:20:29.165Z,25.79
2023-07-29T04:22:57.416Z,25.66
2023-07-29T04:25:25.494Z,25.60
2023-07-29T04:27:53.676Z,25.64
2023-07-29T04:30:21.794Z,25.70
2023-07-29T04:32:49.772Z,25.75
2023-07-29T04:35:18.106Z,25.78
2023-07-29T04:37:46.025Z,25.86
2023-07-29T04:40:13.771Z,25.89
2023-07-29T04:42:41.916Z,25.92
2023-07-29T04:45:11.209Z,26.02
2023-07-29T04:47:39.580Z,26.13
2023-07-29T04:50:11.030Z,26.09
2023-07-29T04:52:38.830Z,26.20
2023-07-29T04:55:07.922Z,26.34
2023-07-29T04:57:35.656Z,26.38
2023-07-29T05:00:04.890Z,26.41
2023-07-29T05:02:33.194Z,26.52
2023-07-29T05:05:01.400Z,26.74
2023-07-29T05:07:29.595Z,26.73
2023-07-29T05:09:57.188Z,26.75
2023-07-29T05:12:25.264Z,26.77
2023-07-29T05:14:53.590Z,26.83
2023-07-29T05:17:21.630Z,26.91
2023-07-29T05:19:50.547Z,26.79
2023-07-29T05:22:18.717Z,26.77
2023-07-29T05:24:47.512Z,26.80
2023-07-29T05:27:15.596Z,26.92
2023-07-29T05:29:43.450Z,26.97
2023-07-29T05:32:11.292Z,27.07
2023-07-29T05:34:39.153Z,27.11
2023-07-29T05:37:07.582Z,27.16
2023-07-29T05:39:35.865Z,27.27
2023-07-29T05:42:03.902Z,27.34
2023-07-29T05:44:32.416Z,27.39
2023-07-29T05:46:59.704Z,27.43
2023-07-29T05:49:31.234Z,27.63
2023-07-29T05:51:59.295Z,27.69
2023-07-29T05:54:27.774Z,27.69
2023-07-29T05:56:55.389Z,27.72
2023-07-29T05:59:23.493Z,27.75
2023-07-29T06:01:51.544Z,27.79
2023-07-29T06:04:19.672Z,27.79
2023-07-29T06:06:55.101Z,27.74
2023-07-29T06:09:24.036Z,27.86
2023-07-29T06:11:53.906Z,27.95
2023-07-29T06:14:25.990Z,28.02
2023-07-29T06:16:54.539Z,28.06
2023-07-29T06:19:22.482Z,28.12
2023-07-29T06:21:51.024Z,28.21
2023-07-29T06:24:19.690Z,28.20
2023-07-29T06:26:47.492Z,28.30
2023-07-29T06:29:15.563Z,28.36
2023-07-29T06:31:44.065Z,28.43
2023-07-29T06:34:11.783Z,28.50
2023-07-29T06:36:40.141Z,28.55
2023-07-29T06:39:08.580Z,28.63
2023-07-29T06:41:36.674Z,28.72
2023-07-29T06:44:05.197Z,28.83
2023-07-29T06:46:33.540Z,28.86
2023-07-29T06:49:01.788Z,28.93
2023-07-29T06:51:33.689Z,29.11
2023-07-29T06:54:01.899Z,29.35
2023-07-29T06:56:30.084Z,29.58
2023-07-29T06:58:58.484Z,29.80
2023-07-29T07:01:26.753Z,29.82
2023-07-29T07:03:55.698Z,29.73
2023-07-29T07:06:25.698Z,29.74
2023-07-29T07:08:55.025Z,29.63
2023-07-29T07:11:22.719Z,29.68
2023-07-29T07:13:50.710Z,29.77
2023-07-29T07:16:19.053Z,29.93
2023-07-29T07:18:46.911Z,30.06
2023-07-29T07:21:14.520Z,30.15
2023-07-29T07:23:42.083Z,30.17
2023-07-29T07:26:10.777Z,30.23
2023-07-29T07:28:38.923Z,30.25
2023-07-29T07:31:07.024Z,30.29
2023-07-29T07:33:35.242Z,30.35
2023-07-29T07:36:04.041Z,30.35
2023-07-29T07:38:32.292Z,30.41
2023-07-29T07:41:00.174Z,30.55
2023-07-29T07:43:27.848Z,30.44
2023-07-29T07:46:02.353Z,30.55
2023-07-29T07:48:29.940Z,30.50
2023-07-29T07:50:57.894Z,30.65
2023-07-29T07:53:27.065Z,30.77
2023-07-29T07:55:55.091Z,30.78
2023-07-29T07:58:22.762Z,30.82
2023-07-29T08:00:50.823Z,30.84
2023-07-29T08:03:19.947Z,30.93
2023-07-29T08:05:48.376Z,30.97
2023-07-29T08:08:16.015Z,31.02
2023-07-29T08:10:43.721Z,31.06
2023-07-29T08:13:12.231Z,31.14
2023-07-29T08:15:40.566Z,31.22
2023-07-29T08:18:08.885Z,31.21
2023-07-29T08:20:36.949Z,31.27
2023-07-29T08:23:04.773Z,31.25
2023-07-29T08:25:32.889Z,31.26
2023-07-29T08:28:01.028Z,31.31
2023-07-29T08:30:28.854Z,31.35
2023-07-29T08:32:57.144Z,31.50
2023-07-29T08:35:25.205Z,31.65
2023-07-29T08:37:52.920Z,31.76
2023-07-29T08:40:20.873Z,31.92
2023-07-29T08:42:48.829Z,32.01
2023-07-29T08:45:16.750Z,31.85
2023-07-29T08:47:44.741Z,31.90
2023-07-29T08:50:15.027Z,31.97
2023-07-29T08:52:43.846Z,32.04
2023-07-29T08:55:11.715Z,31.92
2023-07-29T08:57:39.852Z,31.82
2023-07-29T09:00:09.670Z,31.92
2023-07-29T09:02:38.415Z,32.01
2023-07-29T09:05:08.682Z,32.07
2023-07-29T09:07:36.760Z,32.12
2023-07-29T09:10:06.010Z,32.13
2023-07-29T09:12:33.768Z,32.16
2023-07-29T09:15:01.934Z,32.17
2023-07-29T09:17:32.170Z,32.14
2023-07-29T09:19:59.387Z,32.19
2023-07-29T09:22:26.858Z,32.25
2023-07-29T09:24:54.636Z,32.26
2023-07-29T09:27:29.069Z,32.16
2023-07-29T09:29:57.916Z,32.24
2023-07-29T09:32:27.389Z,32.27
2023-07-29T09:34:55.345Z,32.28
2023-07-29T09:37:23.780Z,32.31
2023-07-29T09:39:51.873Z,32.24
2023-07-29T09:42:21.177Z,32.31
2023-07-29T09:44:52.819Z,32.40
2023-07-29T09:47:25.356Z,32.44
2023-07-29T09:49:52.641Z,32.54
2023-07-29T09:52:22.809Z,32.77
2023-07-29T09:54:51.410Z,33.02
2023-07-29T09:57:20.598Z,33.10
2023-07-29T09:59:58.087Z,32.96
2023-07-29T10:02:29.033Z,32.89
2023-07-29T10:04:56.697Z,32.83
2023-07-29T10:07:24.518Z,32.84
2023-07-29T10:09:53.081Z,32.79
2023-07-29T10:12:20.915Z,32.94
2023-07-29T10:14:48.530Z,32.94
2023-07-29T10:17:17.665Z,33.01
2023-07-29T10:19:45.378Z,32.94
2023-07-29T10:22:13.160Z,33.04
2023-07-29T10:24:42.532Z,33.06
2023-07-29T10:27:10.434Z,33.01
2023-07-29T10:29:40.076Z,33.12
2023-07-29T10:32:09.534Z,33.13
2023-07-29T10:34:37.829Z,33.13
2023-07-29T10:37:06.807Z,33.27
2023-07-29T10:39:46.822Z,33.25
2023-07-29T10:42:14.902Z,33.25
2023-07-29T10:44:42.946Z,33.33
2023-07-29T10:47:36.794Z,33.40
2023-07-29T10:50:05.293Z,33.42
2023-07-29T10:52:36.892Z,33.65
2023-07-29T10:55:05.450Z,33.86
2023-07-29T10:57:38.026Z,34.02
2023-07-29T11:00:08.676Z,34.04
2023-07-29T11:02:40.447Z,33.95
2023-07-29T11:05:28.286Z,33.96
2023-07-29T11:07:56.682Z,33.54
2023-07-29T11:10:24.809Z,33.50
2023-07-29T11:12:53.720Z,33.39
2023-07-29T11:15:27.383Z,33.53
2023-07-29T11:18:18.589Z,33.71
2023-07-29T11:20:45.644Z,33.96
2023-07-29T11:23:13.359Z,34.03
2023-07-29T11:25:41.695Z,34.00
2023-07-29T11:28:10.198Z,34.19
2023-07-29T11:30:41.228Z,34.30
2023-07-29T11:33:09.239Z,34.37
2023-07-29T11:35:37.403Z,34.62
2023-07-29T11:38:05.587Z,34.80
2023-07-29T11:40:33.598Z,35.05
2023-07-29T11:43:01.408Z,34.73
2023-07-29T11:45:42.335Z,34.61
2023-07-29T11:48:14.462Z,34.75
2023-07-29T11:50:42.421Z,35.08
2023-07-29T11:53:10.773Z,35.28
2023-07-29T11:55:38.777Z,35.42
2023-07-29T11:58:06.347Z,35.91
2023-07-29T12:00:33.906Z,36.31
2023-07-29T12:03:01.996Z,36.51
2023-07-29T12:05:29.395Z,36.99
2023-07-29T12:07:57.120Z,37.60
2023-07-29T12:10:25.231Z,37.97
2023-07-29T12:12:53.723Z,38.28
2023-07-29T12:15:30.709Z,38.20
2023-07-29T12:17:58.275Z,38.58
2023-07-29T12:20:26.816Z,38.89
2023-07-29T12:22:55.932Z,38.97
2023-07-29T12:25:25.569Z,39.38
2023-07-29T12:27:53.228Z,39.25
2023-07-29T12:30:26.197Z,39.30
2023-07-29T12:32:54.462Z,39.62
2023-07-29T12:35:22.581Z,40.17
2023-07-29T12:38:00.831Z,40.56
2023-07-29T12:40:28.558Z,41.01
2023-07-29T12:42:57.028Z,40.75
2023-07-29T12:45:27.679Z,40.25
2023-07-29T12:47:55.410Z,39.97
2023-07-29T12:50:23.730Z,40.50
2023-07-29T12:52:51.854Z,40.78
2023-07-29T12:55:23.310Z,40.32
2023-07-29T12:57:54.080Z,40.61
2023-07-29T13:00:21.994Z,40.85
2023-07-29T13:02:50.397Z,41.14
2023-07-29T13:05:18.652Z,41.76
2023-07-29T13:07:46.712Z,42.04
2023-07-29T13:10:15.073Z,41.85
2023-07-29T13:12:43.398Z,41.86
2023-07-29T13:15:12.387Z,42.45
2023-07-29T13:17:40.659Z,42.40
2023-07-29T13:20:11.362Z,42.19
2023-07-29T13:22:39.067Z,42.41
2023-07-29T13:25:07.745Z,42.94
2023-07-29T13:27:35.439Z,43.18
2023-07-29T13:30:03.125Z,42.98
2023-07-29T13:32:31.047Z,42.27
2023-07-29T13:34:59.309Z,40.88
2023-07-29T13:37:27.558Z,40.62
2023-07-29T13:39:55.141Z,40.70
2023-07-29T13:42:23.598Z,41.72
2023-07-29T13:44:51.945Z,42.43
2023-07-29T13:47:20.119Z,43.07
2023-07-29T13:49:48.292Z,43.97
2023-07-29T13:52:16.405Z,44.29
2023-07-29T13:54:44.051Z,44.56
2023-07-29T13:57:11.623Z,44.17
2023-07-29T13:59:39.679Z,43.79
2023-07-29T14:02:07.799Z,43.66
2023-07-29T14:04:35.651Z,44.25
2023-07-29T14:07:04.278Z,44.93
2023-07-29T14:09:32.295Z,45.41
2023-07-29T14:12:07.306Z,46.04
2023-07-29T14:14:35.703Z,45.59
2023-07-29T14:17:03.385Z,44.84
2023-07-29T14:19:31.069Z,44.65
2023-07-29T14:21:59.200Z,44.75
2023-07-29T14:24:27.488Z,44.92
2023-07-29T14:26:55.566Z,45.49
2023-07-29T14:29:24.002Z,45.62
2023-07-29T14:31:52.217Z,45.97
2023-07-29T14:34:20.355Z,45.14
2023-07-29T14:36:48.174Z,45.11
2023-07-29T14:39:17.203Z,45.38
2023-07-29T14:41:45.478Z,45.16
2023-07-29T14:44:13.663Z,45.40
2023-07-29T14:46:41.513Z,44.96
2023-07-29T14:49:09.758Z,44.98
2023-07-29T14:51:38.567Z,44.10
2023-07-29T14:54:06.460Z,43.03
2023-07-29T14:56:35.179Z,43.13
2023-07-29T14:59:03.482Z,44.15
2023-07-29T15:01:31.736Z,44.97
2023-07-29T15:04:01.997Z,45.37
2023-07-29T15:06:29.734Z,46.08
2023-07-29T15:08:57.958Z,46.53
2023-07-29T15:11:26.229Z,47.00
2023-07-29T15:13:54.267Z,47.08
2023-07-29T15:16:24.425Z,47.36
2023-07-29T15:18:52.930Z,47.33
2023-07-29T15:21:20.655Z,46.57
2023-07-29T15:23:48.454Z,45.05
2023-07-29T15:26:16.471Z,44.22
2023-07-29T15:28:44.647Z,44.09
2023-07-29T15:31:11.800Z,43.92
2023-07-29T15:33:39.562Z,44.20
2023-07-29T15:36:07.757Z,44.88
2023-07-29T15:38:36.658Z,45.27
2023-07-29T15:41:04.320Z,45.92
2023-07-29T15:43:31.989Z,45.78
2023-07-29T15:46:00.193Z,45.30
2023-07-29T15:48:28.025Z,45.53
2023-07-29T15:50:56.057Z,45.75
2023-07-29T15:53:24.571Z,46.03
2023-07-29T15:55:52.433Z,45.63
2023-07-29T15:58:20.553Z,45.85
2023-07-29T16:00:48.180Z,45.69
2023-07-29T16:03:15.939Z,45.72
2023-07-29T16:05:45.976Z,45.80
2023-07-29T16:08:15.730Z,46.37
2023-07-29T16:10:44.024Z,46.20
2023-07-29T16:13:14.169Z,45.49
2023-07-29T16:15:42.248Z,44.48
2023-07-29T16:18:10.260Z,43.31
2023-07-29T16:20:38.529Z,42.35
2023-07-29T16:23:08.573Z,41.54
2023-07-29T16:25:37.709Z,40.74
2023-07-29T16:28:05.983Z,40.29
2023-07-29T16:30:34.127Z,39.96
2023-07-29T16:33:02.258Z,39.58
2023-07-29T16:35:30.602Z,39.54
2023-07-29T16:38:00.576Z,39.18
2023-07-29T16:40:28.957Z,38.95
2023-07-29T16:42:56.906Z,38.75
2023-07-29T16:45:24.857Z,38.51
2023-07-29T16:47:52.808Z,38.10
2023-07-29T16:50:20.813Z,38.11
2023-07-29T16:52:50.134Z,38.11
2023-07-29T16:55:18.285Z,38.14
2023-07-29T16:57:46.469Z,38.26
2023-07-29T17:00:15.918Z,38.53
2023-07-29T17:02:44.654Z,38.81
2023-07-29T17:05:12.308Z,38.96
2023-07-29T17:07:40.383Z,38.80
2023-07-29T17:10:10.358Z,38.82
2023-07-29T17:12:38.018Z,38.98
2023-07-29T17:15:09.510Z,39.27
2023-07-29T17:17:38.418Z,39.12
2023-07-29T17:20:07.528Z,39.09
2023-07-29T17:22:36.477Z,38.97
2023-07-29T17:25:05.190Z,38.72
2023-07-29T17:27:33.019Z,38.43
2023-07-29T17:30:00.681Z,38.13
2023-07-29T17:32:28.362Z,37.86
2023-07-29T17:34:56.545Z,37.52
2023-07-29T17:37:24.633Z,37.35
2023-07-29T17:39:54.512Z,37.23
2023-07-29T17:42:22.794Z,37.18
2023-07-29T17:44:50.812Z,37.10
2023-07-29T17:47:19.628Z,37.01
2023-07-29T17:49:47.906Z,37.02
2023-07-29T17:52:16.388Z,36.98
2023-07-29T17:54:44.617Z,36.84
2023-07-29T17:57:12.782Z,36.74
2023-07-29T17:59:41.036Z,36.62
2023-07-29T18:02:09.513Z,36.43
2023-07-29T18:04:37.731Z,36.25
2023-07-29T18:07:06.662Z,35.99
2023-07-29T18:09:34.780Z,35.80
2023-07-29T18:12:02.747Z,35.75
2023-07-29T18:14:30.682Z,35.64
2023-07-29T18:16:58.798Z,35.52
2023-07-29T18:19:30.952Z,35.44
2023-07-29T18:21:59.383Z,35.39
2023-07-29T18:24:26.990Z,35.37
2023-07-29T18:26:55.188Z,35.33
2023-07-29T18:29:22.940Z,35.20
2023-07-29T18:31:52.879Z,35.06
2023-07-29T18:34:22.587Z,34.93
2023-07-29T18:36:51.257Z,34.69
2023-07-29T18:39:19.454Z,34.61
2023-07-29T18:41:47.448Z,34.60
2023-07-29T18:44:15.523Z,34.52
2023-07-29T18:46:43.024Z,34.47
2023-07-29T18:49:10.707Z,34.40
2023-07-29T18:51:38.376Z,34.34
2023-07-29T18:54:06.226Z,34.22
2023-07-29T18:56:34.547Z,34.16
2023-07-29T18:59:02.840Z,34.07
2023-07-29T19:01:30.880Z,33.93
2023-07-29T19:03:58.647Z,33.88
2023-07-29T19:06:26.381Z,33.94
2023-07-29T19:08:54.277Z,33.90
2023-07-29T19:11:21.890Z,33.77
2023-07-29T19:13:50.042Z,33.60
2023-07-29T19:16:33.140Z,33.50
2023-07-29T19:19:00.913Z,33.27
2023-07-29T19:21:29.078Z,33.14
2023-07-29T19:23:57.211Z,33.14
2023-07-29T19:26:25.523Z,33.10
2023-07-29T19:28:54.402Z,33.26
2023-07-29T19:31:22.499Z,33.39
2023-07-29T19:33:50.739Z,33.40
2023-07-29T19:36:18.827Z,33.47
2023-07-29T19:38:46.513Z,33.54
2023-07-29T19:41:14.616Z,33.45
2023-07-29T19:43:44.749Z,33.35
2023-07-29T19:46:37.608Z,33.29
2023-07-29T19:49:01.888Z,33.26
2023-07-29T19:51:31.847Z,33.21
2023-07-29T19:54:00.202Z,33.27
2023-07-29T19:56:28.493Z,33.26
2023-07-29T19:58:56.535Z,33.17
2023-07-29T20:01:24.676Z,33.18
2023-07-29T20:03:53.951Z,33.14
2023-07-29T20:06:22.238Z,33.00
2023-07-29T20:08:52.531Z,32.97
2023-07-29T20:11:22.177Z,32.79
2023-07-29T20:13:49.927Z,32.65
2023-07-29T20:16:18.210Z,32.54
2023-07-29T20:18:46.185Z,32.38
2023-07-29T20:21:14.272Z,32.21
2023-07-29T20:23:42.450Z,32.20
2023-07-29T20:26:10.672Z,32.14
2023-07-29T20:28:39.008Z,32.19
2023-07-29T20:31:07.155Z,32.25
2023-07-29T20:33:35.331Z,32.26
2023-07-29T20:36:03.187Z,32.24
2023-07-29T20:38:31.369Z,32.21
2023-07-29T20:40:58.331Z,32.15
2023-07-29T20:43:26.118Z,32.07
2023-07-29T20:45:54.438Z,32.13
2023-07-29T20:48:22.724Z,32.07
2023-07-29T20:50:50.769Z,32.08
2023-07-29T20:53:19.071Z,32.08
2023-07-29T20:55:46.694Z,32.07
2023-07-29T20:58:14.749Z,32.00
2023-07-29T21:00:42.982Z,32.00
2023-07-29T21:03:11.100Z,31.82
2023-07-29T21:05:39.318Z,31.81
2023-07-29T21:08:07.147Z,31.72
2023-07-29T21:10:35.223Z,31.67
2023-07-29T21:13:03.192Z,31.66
2023-07-29T21:15:30.934Z,31.64
2023-07-29T21:17:59.146Z,31.57
2023-07-29T21:20:27.315Z,31.46
2023-07-29T21:22:55.039Z,31.35
2023-07-29T21:25:23.416Z,31.34
2023-07-29T21:27:51.713Z,31.23
2023-07-29T21:30:19.849Z,31.19
2023-07-29T21:32:48.126Z,31.12
2023-07-29T21:35:15.966Z,31.05
2023-07-29T21:37:44.201Z,31.01
2023-07-29T21:40:13.594Z,30.92
2023-07-29T21:42:42.313Z,30.90
2023-07-29T21:45:12.653Z,30.87
2023-07-29T21:47:40.986Z,30.86
2023-07-29T21:50:11.261Z,30.86
2023-07-29T21:52:39.068Z,30.79
2023-07-29T21:55:09.154Z,30.86
2023-07-29T21:57:37.027Z,30.86
2023-07-29T22:00:09.518Z,30.80
2023-07-29T22:02:37.303Z,30.85
2023-07-29T22:05:06.520Z,30.82
2023-07-29T22:07:34.905Z,30.79
2023-07-29T22:10:02.954Z,30.92
2023-07-29T22:12:32.668Z,30.94
2023-07-29T22:15:00.756Z,30.85
2023-07-29T22:17:28.156Z,30.68
2023-07-29T22:19:56.228Z,30.65
2023-07-29T22:22:24.561Z,30.55
2023-07-29T22:24:53.658Z,30.55
2023-07-29T22:27:21.346Z,30.48
2023-07-29T22:29:49.334Z,30.48
2023-07-29T22:32:17.527Z,30.46
2023-07-29T22:34:45.990Z,30.35
2023-07-29T22:37:14.386Z,30.31
2023-07-29T22:39:44.182Z,30.30
2023-07-29T22:42:12.411Z,30.31
2023-07-29T22:44:40.880Z,30.29
2023-07-29T22:47:08.575Z,30.33
2023-07-29T22:49:36.747Z,30.27
2023-07-29T22:52:05.862Z,30.26
2023-07-29T22:54:33.855Z,30.25
2023-07-29T22:57:02.129Z,30.26
2023-07-29T22:59:30.372Z,30.21
2023-07-29T23:01:58.754Z,30.10
2023-07-29T23:04:27.083Z,30.06
2023-07-29T23:06:56.220Z,30.06
2023-07-29T23:09:24.451Z,30.07
2023-07-29T23:11:52.432Z,30.07
2023-07-29T23:14:20.085Z,30.08
2023-07-29T23:16:48.273Z,30.10
2023-07-29T23:19:16.373Z,30.20
2023-07-29T23:21:44.194Z,30.18
2023-07-29T23:24:12.407Z,30.15
2023-07-29T23:26:40.529Z,30.26
2023-07-29T23:29:08.197Z,30.35
2023-07-29T23:31:36.586Z,30.37
2023-07-29T23:34:04.453Z,30.36
2023-07-29T23:36:32.528Z,30.31
2023-07-29T23:39:00.255Z,30.27
2023-07-29T23:41:28.541Z,30.27
2023-07-29T23:43:55.687Z,30.19
2023-07-29T23:46:23.923Z,30.16
2023-07-29T23:48:52.148Z,30.12
2023-07-29T23:51:20.756Z,30.23
2023-07-29T23:53:49.163Z,29.52
2023-07-29T23:56:17.366Z,29.16
2023-07-29T23:58:44.959Z,28.51
